^^
Datos históricos de la estación: Murcia-Puente Tocinos
Diario Informe para Marzo 08, 2021 Unidades:  Ingés    Métrico   Ambas
Diario Semanal Mensual Anual
  Máxima: Mínima: Promedio:
Temperatura: 64 °F 50.4 °F 55.4 °F
Punto de rocio: 52.3 °F 44.8 °F 48.7 °F
Humedad: 95% 50.1% 80%
Velocidad viento: 11.8mph 0mph 4.6mph
Racha viento: 20mph - -
Viento- - Sur
Presión: 30 in 29.9 in -
Precipitación: 0.33 in    
 
 
Tabla de datos para Marzo 08, 2021
Hora Temperatura Punto de rocio Presión Viento Velocidad viento Racha viento Humedad Intensidad lluvia(por hora) Nubes
00:04 53.8 °F 52.3 °F 30 in SSO 4 mph 8.1 mph 95% 0 in
00:09 53.8 °F 52.3 °F 30 in Sur 3.8 mph 6.9 mph 95% 0 in
00:14 53.8 °F 52.3 °F 30 in Sur 3.6 mph 7 mph 94.7% 0 in
00:19 54 °F 52.2 °F 29.9 in SSO 3.9 mph 6 mph 94% 0 in
00:24 54 °F 52.3 °F 29.9 in SSO 4 mph 8.1 mph 94% 0 in
00:29 54 °F 52.3 °F 29.9 in SSO 4 mph 8 mph 93.9% 0 in
00:34 54 °F 52 °F 29.9 in SSO 4 mph 6.2 mph 93% 0 in
00:39 54.1 °F 52.2 °F 29.9 in SSO 3.8 mph 6 mph 93% 0 in
00:44 54.1 °F 52.2 °F 29.9 in SSO 3.6 mph 6.9 mph 92.7% 0 in
00:49 54.1 °F 52 °F 29.9 in SSO 3.6 mph 7 mph 92% 0 in
00:54 54.1 °F 52 °F 29.9 in SSO 3.6 mph 6 mph 92% 0 in
00:59 54.1 °F 51.8 °F 29.9 in Sur 3.6 mph 6 mph 91.6% 0 in
01:04 54.1 °F 51.6 °F 29.9 in Sur 3.6 mph 5 mph 91% 0 in
01:09 54.1 °F 51.6 °F 29.9 in Sur 3.3 mph 6.2 mph 91% 0 in
01:14 54.1 °F 51.6 °F 29.9 in Sur 3.1 mph 6.4 mph 91% 0 in
01:19 54.1 °F 51.6 °F 29.9 in Sur 3.4 mph 7 mph 91% 0 in
01:24 54 °F 51.4 °F 29.9 in SSO 3.6 mph 7 mph 91% 0 in
01:29 54 °F 51.4 °F 29.9 in Sur 4 mph 6.2 mph 91% 0 in
01:34 54 °F 51.4 °F 29.9 in SSO 4.3 mph 6 mph 91% 0 in
01:39 53.8 °F 51.3 °F 29.9 in SSO 3.9 mph 6.2 mph 91% 0 in
01:44 53.8 °F 51.3 °F 29.9 in SSO 3.6 mph 6.9 mph 91% 0 in
01:49 53.8 °F 51.1 °F 29.9 in SSO 4 mph 7 mph 90.6% 0 in
01:54 53.8 °F 50.9 °F 29.9 in Sur 4.3 mph 7 mph 90% 0 in
01:59 53.8 °F 50.9 °F 29.9 in Sur 4.3 mph 7.4 mph 90% 0 in
02:04 53.8 °F 50.9 °F 29.9 in Sur 4.3 mph 7 mph 90% 0 in
02:09 53.8 °F 50.9 °F 29.9 in Sur 4.8 mph 7 mph 90% 0 in
02:14 53.8 °F 50.9 °F 29.9 in Sur 5.2 mph 7 mph 90% 0 in
02:19 53.8 °F 50.9 °F 29.9 in SSO 4.7 mph 7 mph 90% 0 in
02:24 53.8 °F 50.9 °F 29.9 in SSO 4.3 mph 7 mph 90% 0 in
02:29 53.8 °F 50.5 °F 29.9 in SSO 4.1 mph 7.4 mph 89% 0 in
02:34 53.8 °F 50.5 °F 29.9 in SSO 4 mph 7 mph 89% 0 in
02:39 53.8 °F 50.5 °F 29.9 in SSO 4.2 mph 7 mph 89% 0 in
02:44 53.6 °F 50.2 °F 29.9 in SSO 4.3 mph 7 mph 88.1% 0 in
02:49 53.6 °F 50.2 °F 29.9 in SSO 4.1 mph 7 mph 88% 0 in
02:54 53.6 °F 50 °F 29.9 in SSO 4 mph 6.9 mph 88% 0 in
02:59 53.4 °F 50 °F 29.9 in SSO 4 mph 7 mph 88% 0 in
03:04 53.4 °F 49.8 °F 29.9 in Sur 4 mph 7 mph 87.6% 0 in
03:09 53.4 °F 49.6 °F 29.9 in Sur 4.2 mph 7 mph 87% 0 in
03:14 53.4 °F 49.8 °F 29.9 in Sur 4.3 mph 7 mph 87.4% 0 in
03:19 53.4 °F 50 °F 29.9 in Sur 4.1 mph 6.9 mph 88% 0 in
03:24 53.2 °F 49.8 °F 29.9 in Sur 4 mph 5.8 mph 88% 0 in
03:29 53.2 °F 49.8 °F 29.9 in Sur 4 mph 6.2 mph 88% 0 in
03:34 53.2 °F 49.8 °F 29.9 in Sur 4 mph 6 mph 88% 0 in
03:39 53.2 °F 49.8 °F 29.9 in Sur 3.8 mph 6 mph 88% 0 in
03:44 53.1 °F 49.6 °F 29.9 in Sur 3.6 mph 5.9 mph 88% 0 in
03:49 53.1 °F 49.6 °F 29.9 in Sur 3.6 mph 6 mph 88% 0 in
03:54 52.9 °F 49.5 °F 29.9 in Sur 3.6 mph 6 mph 88% 0 in
03:59 52.9 °F 49.3 °F 29.9 in Sur 3.9 mph 6.2 mph 88% 0 in
04:04 52.7 °F 49.3 °F 29.9 in Sur 4 mph 6 mph 88.2% 0 in
04:09 52.7 °F 49.5 °F 29.9 in Sur 3.4 mph 5.9 mph 89% 0 in
04:14 52.5 °F 49.5 °F 29.9 in SSO 3.1 mph 6.9 mph 89% 0 in
04:19 52.5 °F 49.5 °F 29.9 in SSO 3.9 mph 7 mph 89% 0 in
04:24 52.5 °F 49.5 °F 29.9 in SSO 4.3 mph 6 mph 89% 0 in
04:29 52.5 °F 49.1 °F 29.9 in SSO 3.9 mph 6 mph 88.3% 0 in
04:34 52.5 °F 49.1 °F 29.9 in SSO 3.6 mph 5 mph 88% 0 in
04:39 52.5 °F 49.1 °F 29.9 in SSO 3.3 mph 5 mph 88% 0 in
04:44 52.3 °F 48.9 °F 29.9 in SO 3.1 mph 5 mph 88% 0 in
04:49 52.3 °F 48.9 °F 29.9 in SO 2.7 mph 5 mph 88% 0 in
04:54 52.3 °F 48.9 °F 29.9 in SO 2.4 mph 3 mph 88% 0 in
04:59 52.3 °F 49.1 °F 29.9 in SO 2 mph 2.4 mph 88.6% 0 in
05:04 52.2 °F 48.9 °F 29.9 in OSO 1.8 mph 3.6 mph 88.8% 0 in
05:09 52 °F 48.9 °F 29.9 in Oeste 1.8 mph 4 mph 89% 0 in
05:14 52 °F 48.7 °F 29.9 in Oeste 1.8 mph 4.7 mph 89% 0 in
05:19 51.6 °F 48.6 °F 29.9 in OSO 1.6 mph 5.8 mph 89% 0 in
05:24 51.4 °F 48.6 °F 29.9 in SO 1.4 mph 6.9 mph 89.8% 0 in
05:29 51.4 °F 48.6 °F 29.9 in OSO 3 mph 7 mph 90% 0 in
05:34 51.3 °F 48.4 °F 29.9 in OSO 4 mph 6 mph 90% 0 in
05:39 51.1 °F 48.4 °F 29.9 in OSO 3.4 mph 6 mph 90.4% 0 in
05:40 51.1 °F 48.6 °F 29.9 in OSO 3.1 mph 6 mph 91% 0 in
05:49 50.7 °F 48.2 °F 29.9 in SO 3.4 mph 6.9 mph 91% 0 in
05:54 50.7 °F 48.2 °F 29.9 in SO 3.6 mph 7 mph 91% 0 in
05:59 50.9 °F 48.4 °F 29.9 in SO 3.6 mph 6 mph 91% 0 in
06:04 50.9 °F 48.4 °F 29.9 in SSO 3.6 mph 5 mph 91% 0 in
06:09 50.9 °F 48.4 °F 29.9 in SSO 3.3 mph 5.4 mph 91% 0 in
06:14 51.1 °F 48.6 °F 29.9 in SSO 3.1 mph 6 mph 91% 0 in
06:19 51.1 °F 48.4 °F 29.9 in Sur 3.4 mph 6 mph 90.6% 0 in
06:24 51.1 °F 48.2 °F 29.9 in SSE 3.6 mph 5.2 mph 90% 0 in
06:29 50.9 °F 48 °F 29.9 in SSE 3.3 mph 6.2 mph 90% 0 in
06:34 50.5 °F 47.8 °F 29.9 in SSE 3.1 mph 6.9 mph 90% 0 in
06:39 50.4 °F 47.5 °F 29.9 in SSE 3.9 mph 7 mph 90% 0 in
06:44 50.4 °F 47.7 °F 29.9 in SSE 4.3 mph 7.4 mph 90.8% 0 in
06:49 50.4 °F 47.8 °F 29.9 in SSE 4.9 mph 7.4 mph 91% 0 in
06:54 50.4 °F 47.8 °F 29.9 in SE 5.2 mph 7 mph 91% 0 in
06:59 50.4 °F 47.8 °F 29.9 in SSE 4.6 mph 7 mph 91% 0 in
07:04 50.4 °F 47.8 °F 29.9 in SSE 4.3 mph 7.4 mph 91% 0 in
07:09 50.4 °F 47.7 °F 29.9 in SSE 4.5 mph 7 mph 90.7% 0 in
07:14 50.4 °F 47.5 °F 29.9 in SSE 4.7 mph 7 mph 90% 0 in
07:19 50.4 °F 47.5 °F 29.9 in Sur 4.5 mph 6.9 mph 90% 0 in
07:24 50.4 °F 47.5 °F 29.9 in Sur 4.3 mph 7.4 mph 90% 0 in
07:29 50.4 °F 47.5 °F 29.9 in SSO 4.8 mph 8.7 mph 90% 0 in
07:34 50.4 °F 47.5 °F 29.9 in SSO 5.2 mph 9.2 mph 90% 0 in
07:39 50.5 °F 47.7 °F 29.9 in Sur 5.3 mph 9 mph 90% 0 in
07:44 50.5 °F 47.8 °F 29.9 in SSO 5.4 mph 7 mph 90% 0 in
07:49 50.7 °F 47.8 °F 29.9 in Sur 4.5 mph 6 mph 90% 0 in
07:54 50.7 °F 47.8 °F 29.9 in SSE 4 mph 5.8 mph 90% 0 in
07:59 50.7 °F 48 °F 29.9 in SE 3.7 mph 6.9 mph 89.9% 0 in
08:04 51.1 °F 48.2 °F 29.9 in SSE 3.6 mph 7 mph 89.8% 0 in
08:09 51.1 °F 48 °F 29.9 in SSE 4 mph 7.4 mph 89% 0 in
08:14 51.1 °F 48 °F 29.9 in Sur 4.3 mph 8.7 mph 89% 0 in
08:19 51.3 °F 48 °F 29.9 in SSO 5 mph 9.2 mph 89% 0 in
08:24 51.3 °F 48 °F 29.9 in SSO 5.4 mph 9.2 mph 88.4% 0 in
08:29 51.4 °F 48 °F 29.9 in SO 5.4 mph 9.2 mph 88% 0 in
08:34 51.4 °F 48.2 °F 29.9 in SO 5.4 mph 9 mph 88% 0 in
08:39 51.6 °F 48.2 °F 29.9 in SO 5.3 mph 7 mph 88% 0 in
08:44 51.8 °F 48.2 °F 29.9 in SO 5.2 mph 7.4 mph 87.4% 0 in
08:49 52.2 °F 48.4 °F 29.9 in SO 4.4 mph 7 mph 87% 0 in
08:54 52.3 °F 48.4 °F 29.9 in SO 4 mph 9.2 mph 86.3% 0 in
08:59 52.3 °F 48.4 °F 29.9 in SO 4.9 mph 10.2 mph 85.7% 0 in
09:04 52.7 °F 48.2 °F 29.9 in SO 5.4 mph 10.4 mph 85% 0 in
09:09 53.1 °F 48.4 °F 29.9 in OSO 5.4 mph 9.2 mph 84.3% 0 in
09:14 53.2 °F 48.6 °F 29.9 in OSO 5.4 mph 9 mph 84% 0 in
09:19 53.4 °F 48.6 °F 29.9 in OSO 5.3 mph 8.1 mph 83.3% 0 in
09:24 53.8 °F 48.6 °F 29.9 in OSO 5.2 mph 9.7 mph 82.4% 0 in
09:25 54 °F 48.6 °F 29.9 in SSO 5.2 mph 10 mph 82% 0 in
09:34 54.3 °F 48.7 °F 29.9 in SO 5.2 mph 8.1 mph 81.4% 0 in
09:39 54.7 °F 48.7 °F 29.9 in SSO 4.7 mph 8.1 mph 80.3% 0 in
09:44 54.9 °F 48.4 °F 29.9 in SO 4.3 mph 9.2 mph 78.7% 0 in
09:49 54.9 °F 48.2 °F 29.9 in OSO 4.8 mph 9.7 mph 78.2% 0 in
09:54 55 °F 48.4 °F 29.9 in OSO 5.2 mph 10 mph 78% 0 in
09:59 55.2 °F 48.6 °F 29.9 in SO 5.8 mph 11.5 mph 77.9% 0 in
10:04 55.6 °F 48.4 °F 29.9 in OSO 6.2 mph 12 mph 77% 0 in
10:09 55.8 °F 48.6 °F 29.9 in SO 6 mph 10 mph 76.9% 0 in
10:14 55.9 °F 48.4 °F 29.9 in SO 5.9 mph 10.4 mph 75.8% 0 in
10:19 56.3 °F 48.4 °F 29.9 in SO 5.6 mph 10 mph 74.9% 0 in
10:24 56.7 °F 48.4 °F 29.9 in OSO 5.4 mph 8.5 mph 73.8% 0 in
10:29 57 °F 48 °F 29.9 in OSO 4.7 mph 9 mph 71.9% 0 in
10:34 57.4 °F 47.8 °F 29.9 in Oeste 4.3 mph 9.7 mph 70.3% 0 in
10:39 57.4 °F 46.8 °F 29.9 in Oeste 4.9 mph 10 mph 67.8% 0 in
10:44 57.4 °F 46.4 °F 29.9 in Oeste 5.2 mph 8.1 mph 66.6% 0 in
10:49 57.6 °F 45.9 °F 29.9 in OSO 4.6 mph 9.2 mph 65% 0 in
10:54 57.7 °F 45.7 °F 29.9 in SO 4.3 mph 9.2 mph 63.9% 0 in
10:59 58.1 °F 46 °F 29.9 in ONO 4.6 mph 10.4 mph 64.3% 0 in
11:04 58.1 °F 46.6 °F 29.9 in SO 4.7 mph 10 mph 65.5% 0 in
11:09 58.3 °F 46.8 °F 29.9 in SO 4.5 mph 9 mph 65.6% 0 in
11:14 58.5 °F 46.8 °F 29.9 in Oeste 4.3 mph 9.7 mph 65.1% 0 in
11:19 58.6 °F 46.8 °F 29.9 in ONO 5.3 mph 10.4 mph 64.3% 0 in
11:24 58.8 °F 46.8 °F 29.9 in OSO 5.9 mph 10 mph 63.9% 0 in
11:29 59.4 °F 46.8 °F 29.9 in OSO 5.2 mph 7 mph 63.1% 0 in
11:34 59.7 °F 46.2 °F 29.9 in ONO 4.7 mph 10.4 mph 61.1% 0 in
11:39 59.7 °F 45.9 °F 29.9 in NNO 4.7 mph 10 mph 59.9% 0 in
11:44 59.9 °F 45.7 °F 29.9 in Oeste 4.7 mph 10.4 mph 59.2% 0 in
11:49 59.9 °F 45.3 °F 29.9 in OSO 4.7 mph 10 mph 58.4% 0 in
11:54 60.1 °F 45.3 °F 29.9 in SO 4.7 mph 9.2 mph 58% 0 in
11:59 60.3 °F 45.3 °F 29.9 in SO 4.3 mph 9 mph 57.6% 0 in
12:04 60.4 °F 45.1 °F 29.9 in Oeste 4 mph 10.4 mph 56.8% 0 in
12:09 60.4 °F 45.1 °F 29.9 in SO 4.2 mph 9.7 mph 57.3% 0 in
12:14 60.4 °F 45.7 °F 29.9 in Oeste 4.3 mph 10 mph 58.1% 0 in
12:19 60.6 °F 45.9 °F 29.9 in Oeste 4.1 mph 10.4 mph 58.2% 0 in
12:24 60.6 °F 46 °F 29.9 in Oeste 4 mph 11.5 mph 58.5% 0 in
12:29 60.6 °F 45.9 °F 29.9 in OSO 5.5 mph 12 mph 58.1% 0 in
12:34 60.8 °F 46 °F 29.9 in SO 6.4 mph 11.5 mph 58.4% 0 in
12:39 61.3 °F 46.6 °F 29.9 in Oeste 5.3 mph 11.5 mph 58.6% 0 in
12:44 61.3 °F 46 °F 29.9 in ONO 4.7 mph 12 mph 57.1% 0 in
12:49 61.3 °F 46.2 °F 29.9 in ESE 5.2 mph 10 mph 57.6% 0 in
12:54 61.9 °F 46.2 °F 29.9 in SSO 5.4 mph 10 mph 56.7% 0 in
12:59 62.2 °F 45.9 °F 29.9 in ONO 5.7 mph 12.7 mph 55.2% 0 in
13:04 62.1 °F 45.9 °F 29.9 in Oeste 5.9 mph 13 mph 55.4% 0 in
13:09 62.1 °F 45.7 °F 29.9 in ONO 5.9 mph 9.2 mph 55.2% 0 in
13:14 62.2 °F 45.7 °F 29.9 in NNE 5.9 mph 11.2 mph 54.9% 0 in
13:19 62.1 °F 45.3 °F 29.9 in NO 5.2 mph 12 mph 54.3% 0 in
13:24 62.1 °F 45.7 °F 29.9 in OSO 4.7 mph 10.4 mph 55.1% 0 in
13:29 62.1 °F 45.9 °F 29.9 in SO 4.7 mph 10 mph 55.1% 0 in
13:34 62.2 °F 45.7 °F 29.9 in SSO 4.7 mph 9 mph 54.6% 0 in
13:39 62.4 °F 45.5 °F 29.9 in SSE 3.7 mph 7 mph 54% 0 in
13:44 62.8 °F 46.2 °F 29.9 in Sur 3.1 mph 8.1 mph 54.6% 0 in
13:49 63.1 °F 46.4 °F 29.9 in SE 3.4 mph 8 mph 54.3% 0 in
13:54 63.7 °F 46 °F 29.9 in ONO 3.6 mph 9.2 mph 52.6% 0 in
13:59 63.7 °F 45.9 °F 29.9 in OSO 3.3 mph 11.2 mph 52.3% 0 in
14:04 63.9 °F 46.8 °F 29.9 in NO 3.1 mph 13.8 mph 53.6% 0 in
14:09 63.9 °F 46.4 °F 29.9 in NNO 5.2 mph 14 mph 53.3% 0 in
14:14 63.3 °F 46.6 °F 29.9 in Oeste 6.4 mph 13 mph 54.4% 0 in
14:19 63.3 °F 47.1 °F 29.9 in North 7 mph 13.8 mph 55.3% 0 in
14:24 63.3 °F 46.8 °F 29.9 in NNO 7.4 mph 14 mph 54.6% 0 in
14:29 63.1 °F 45.7 °F 29.9 in NNE 7.5 mph 14 mph 52.6% 0 in
14:34 63.1 °F 45.7 °F 29.9 in NNO 7.6 mph 8.1 mph 53.1% 0 in
14:39 63.3 °F 45.9 °F 29.9 in NE 6.5 mph 11.5 mph 53.1% 0 in
14:44 63.3 °F 45.9 °F 29.9 in NE 5.9 mph 12 mph 53% 0 in
14:49 63.1 °F 45.7 °F 29.9 in North 5.5 mph 12 mph 53% 0 in
14:54 63.1 °F 45.3 °F 29.9 in North 5.2 mph 11.5 mph 51.9% 0 in
14:59 63.3 °F 45 °F 29.9 in NNO 5.3 mph 12 mph 51% 0 in
15:04 63.3 °F 45 °F 29.9 in North 5.4 mph 9 mph 51% 0 in
15:09 63.3 °F 44.8 °F 29.9 in North 4.7 mph 7.4 mph 50.8% 0 in
15:14 63.5 °F 45 °F 29.9 in North 4.3 mph 12.7 mph 51.1% 0 in
15:19 63.9 °F 45 °F 29.9 in NE 5 mph 11.8 mph 50.4% 0 in
15:24 63.9 °F 45 °F 29.9 in NNE 5.4 mph 12 mph 50.1% 0 in
15:29 64 °F 45.9 °F 29.9 in NNE 5.7 mph 17.3 mph 51.4% 0 in
15:34 64 °F 46.4 °F 29.9 in NNE 5.9 mph 19.6 mph 52.6% 0 in
15:39 63.3 °F 46.4 °F 29.9 in NNE 9.2 mph 20 mph 53.9% 0 in
15:44 63 °F 46.6 °F 29.9 in NNE 11.2 mph 18 mph 55.3% 0 in
15:49 63.1 °F 47.1 °F 29.9 in NNE 10.4 mph 19 mph 56% 0 in
15:54 63 °F 47.5 °F 29.9 in NNE 10 mph 19 mph 56.9% 0 in
15:59 62.2 °F 47.3 °F 29.9 in NNE 11.2 mph 19.7 mph 57.9% 0 in
16:04 62.1 °F 47.5 °F 29.9 in NE 11.8 mph 20 mph 59% 0 in
16:09 61.7 °F 47.1 °F 29.9 in NE 10.5 mph 17 mph 58.8% 0 in
16:14 61.9 °F 48 °F 29.9 in NE 9.7 mph 16 mph 60.4% 0 in
16:19 62.2 °F 48.9 °F 29.9 in NE 7.6 mph 12.5 mph 61.7% 0 in
16:24 62.2 °F 48.4 °F 29.9 in NE 6.4 mph 13 mph 60.4% 0 in
16:29 62.2 °F 49.1 °F 29.9 in Este 7 mph 14 mph 62.3% 0 in
16:34 62.1 °F 49.6 °F 29.9 in ESE 7.4 mph 14 mph 63.9% 0 in
16:39 61.9 °F 49.8 °F 29.9 in Este 7.4 mph 14 mph 64.6% 0 in
16:44 61.5 °F 49.6 °F 29.9 in ENE 7.4 mph 10.4 mph 65% 0 in
16:49 61.3 °F 49.3 °F 29.9 in ENE 6.6 mph 13 mph 64.6% 0 in
16:54 61.2 °F 49.5 °F 29.9 in Este 6.2 mph 13 mph 65.5% 0 in
16:59 61 °F 50 °F 29.9 in ENE 6.3 mph 13 mph 66.9% 0 in
17:04 60.6 °F 49.8 °F 29.9 in Este 6.4 mph 14 mph 67.6% 0 in
17:09 60.4 °F 50.4 °F 29.9 in ESE 6.7 mph 15 mph 69.2% 0 in
17:14 59.9 °F 50.5 °F 29.9 in ESE 6.9 mph 16.3 mph 71.1% 0 in
17:19 59.2 °F 50.5 °F 29.9 in ESE 8.9 mph 18.4 mph 72.9% 0 in
17:24 58.6 °F 50 °F 29.9 in ESE 10.2 mph 18.4 mph 73% 0 in
17:29 58.5 °F 50 °F 29.9 in ESE 10.8 mph 18 mph 73.1% 0 in
17:34 58.3 °F 50 °F 29.9 in Este 11.2 mph 18.4 mph 74% 0 in
17:39 57.7 °F 49.5 °F 29.9 in ESE 10.5 mph 18 mph 74% 0 in
17:44 57.4 °F 49.3 °F 29.9 in ESE 10 mph 18.5 mph 74.4% 0 in
17:49 57 °F 49.6 °F 29.9 in ESE 10.1 mph 19 mph 76.2% 0 in
17:54 56.8 °F 49.8 °F 29.9 in SE 10.2 mph 18.4 mph 77% 0 in
17:59 56.8 °F 49.6 °F 29.9 in SE 10.1 mph 18.4 mph 77% 0 in
18:04 56.7 °F 49.5 °F 29.9 in SE 10 mph 18 mph 77% 0 in
18:09 56.7 °F 49.5 °F 29.9 in SE 9.2 mph 13 mph 77.1% 0 in
18:14 56.7 °F 49.5 °F 29.9 in SE 8.7 mph 13.8 mph 77% 0 in
18:19 56.7 °F 49.5 °F 29.9 in ESE 7.6 mph 12.7 mph 76.8% 0 in
18:24 56.7 °F 49.8 °F 29.9 in ESE 6.9 mph 11.8 mph 77.7% 0.02 in
18:29 56.1 °F 49.8 °F 29.9 in ESE 6.5 mph 12 mph 79.3% 0.03 in
18:34 55.8 °F 50.2 °F 29.9 in ESE 6.2 mph 12 mph 81.4% 0.03 in
18:39 55.6 °F 50.4 °F 29.9 in SE 5.6 mph 10.4 mph 83% 0.03 in
18:44 55 °F 50.4 °F 29.9 in SSE 5.2 mph 8 mph 83.9% 0.03 in
18:49 54.9 °F 50.4 °F 29.9 in SSO 4.2 mph 6.4 mph 84.5% 0.04 in
18:54 54.9 °F 50.4 °F 29.9 in SO 3.6 mph 7 mph 85% 0.04 in
18:59 54.9 °F 50.7 °F 29.9 in SO 2.8 mph 3.6 mph 85.7% 0.04 in
19:04 54.9 °F 50.7 °F 29.9 in Oeste 2.4 mph 5.9 mph 86% 0.06 in
19:09 54.7 °F 50.5 °F 29.9 in Oeste 2.4 mph 9.2 mph 86% 0.06 in
19:14 54.1 °F 50 °F 29.9 in Oeste 2.4 mph 9 mph 86% 0.07 in
19:19 53.6 °F 49.5 °F 29.9 in Oeste 4.1 mph 8.1 mph 85.7% 0.08 in
19:24 52.7 °F 48.4 °F 29.9 in Oeste 5.2 mph 8.5 mph 85% 0.08 in
19:29 52.2 °F 47.8 °F 29.9 in SO 4.7 mph 5.8 mph 85.5% 0.07 in
19:34 52 °F 48 °F 29.9 in SO 4.3 mph 5 mph 86.6% 0.09 in
19:39 51.8 °F 48.2 °F 29.9 in OSO 2.9 mph 4.6 mph 87.4% 0.1 in
19:44 52 °F 48.6 °F 30 in OSO 2 mph 5 mph 88% 0.11 in
19:49 52 °F 48.6 °F 30 in Oeste 1.6 mph 2.9 mph 88% 0.11 in
19:54 52 °F 48.7 °F 30 in ONO 1.4 mph 4.7 mph 88.9% 0.11 in
19:59 51.8 °F 48.7 °F 30 in ONO 1.8 mph 6.9 mph 88.8% 0.11 in
20:04 51.6 °F 48.6 °F 30 in Oeste 2 mph 7 mph 89% 0.12 in
20:09 51.6 °F 48.6 °F 30 in Oeste 2.7 mph 5 mph 89% 0.11 in
20:14 51.4 °F 48.4 °F 30 in Oeste 3.1 mph 5 mph 89% 0.11 in
20:19 51.4 °F 48.7 °F 30 in ONO 2.4 mph 5 mph 90% 0.1 in
20:24 51.6 °F 48.7 °F 30 in NO 2 mph 4 mph 90% 0.09 in
20:29 51.6 °F 48.7 °F 30 in NO 2 mph 4 mph 90% 0.09 in
20:34 51.6 °F 48.9 °F 30 in NO 2 mph 4 mph 90.7% 0.08 in
20:39 51.6 °F 49.1 °F 30 in NO 1.6 mph 4.6 mph 91% 0.06 in
20:44 51.6 °F 49.1 °F 30 in North 1.4 mph 5 mph 91% 0.06 in
20:49 51.6 °F 49.1 °F 30 in NE 2.1 mph 5.2 mph 91% 0.06 in
20:54 51.6 °F 49.1 °F 30 in NE 2.4 mph 5.2 mph 91% 0.06 in
20:59 51.6 °F 49.3 °F 30 in NNE 2.9 mph 5.9 mph 91.3% 0.06 in
21:04 51.6 °F 49.5 °F 30 in ENE 3.1 mph 6 mph 92% 0.05 in
21:09 52 °F 49.6 °F 30 in ENE 3.1 mph 5.9 mph 92% 0.05 in
21:14 52 °F 49.6 °F 30 in Este 3.1 mph 6 mph 92% 0.04 in
21:19 52 °F 49.6 °F 30 in ENE 3 mph 5 mph 92% 0.04 in
21:24 52 °F 49.6 °F 30 in NE 2.9 mph 5.8 mph 92% 0.05 in
21:29 52 °F 49.8 °F 30 in ENE 2.5 mph 6 mph 92.2% 0.04 in
21:34 51.8 °F 49.6 °F 30 in NE 2.4 mph 5 mph 92.3% 0.04 in
21:39 51.6 °F 49.5 °F 30 in NE 2.7 mph 5 mph 92.5% 0.04 in
21:44 51.6 °F 49.6 °F 30 in NNE 2.9 mph 4.6 mph 93% 0.03 in
21:49 51.6 °F 49.6 °F 30 in North 2.6 mph 5 mph 93% 0.04 in
21:54 51.6 °F 49.6 °F 30 in North 2.4 mph 5 mph 93% 0.03 in
21:59 51.6 °F 49.6 °F 30 in NNE 2.7 mph 5 mph 93% 0.03 in
22:04 51.6 °F 49.6 °F 30 in North 2.9 mph 5.8 mph 93% 0.04 in
22:09 51.6 °F 49.6 °F 30 in North 3 mph 6 mph 93% 0.04 in
22:14 51.6 °F 49.6 °F 30 in NNE 3.1 mph 6 mph 93% 0.05 in
22:19 51.6 °F 49.8 °F 30 in NNE 3.1 mph 6 mph 93% 0.05 in
22:24 51.8 °F 50 °F 30 in NNE 3.1 mph 7.4 mph 93.9% 0.05 in
22:29 51.8 °F 50.2 °F 30 in NNE 3.4 mph 7 mph 94% 0.04 in
22:34 51.8 °F 50.2 °F 30 in NNE 3.6 mph 7 mph 94% 0.05 in
22:39 51.8 °F 50.2 °F 30 in NNE 4 mph 8.1 mph 94% 0.05 in
22:44 51.8 °F 50.2 °F 30 in NNE 4.3 mph 8 mph 94% 0.05 in
22:49 51.8 °F 50.2 °F 30 in NNE 4.3 mph 8.1 mph 94% 0.04 in
22:54 51.8 °F 50.2 °F 30 in NNE 4.3 mph 9.2 mph 94% 0.04 in
22:59 51.8 °F 50.2 °F 30 in NNE 4.5 mph 9 mph 94% 0.05 in
23:04 51.8 °F 50.2 °F 30 in NNE 4.7 mph 8 mph 94% 0.05 in
23:09 51.6 °F 50 °F 30 in NE 4.5 mph 7.4 mph 94% 0.04 in
23:14 51.6 °F 50 °F 30 in NE 4.3 mph 7 mph 94.1% 0.04 in
23:19 51.8 °F 50.4 °F 30 in ENE 3.6 mph 4.6 mph 95% 0.04 in
23:24 51.8 °F 50.4 °F 30 in ENE 3.1 mph 4.7 mph 95% 0.04 in
23:29 51.8 °F 50.4 °F 30 in Este 2.4 mph 5 mph 95% 0.04 in
23:34 51.8 °F 50.5 °F 30 in Este 2 mph 4 mph 95% 0.05 in
23:39 52 °F 50.5 °F 30 in Este 0.8 mph 2 mph 95% 0.04 in
23:44 52 °F 50.5 °F 30 in Calm     95% 0.04 in
23:49 51.8 °F 50.5 °F 30 in Calm     95% 0.06 in
23:54 51.6 °F 50.2 °F 30 in Calm     95% 0.06 in
23:59 51.6 °F 50.2 °F 30 in Calm   2.3 mph 95% 0.06 in
Murcia-Puente Tocinos, España
Compliments of Weather Underground - 3 mb

La estación de MeteoMurcia.com, publica sus datos en los siguientes proyectos:

Weather Underground PWS IMURCIAP2 Meteoclimatic www.awekas.at

W3Counter
Web Analytics